Time;durP1;ratioP1;P1;durP2;ratioP2;P2;SDS_P1;SDS_P2;PMS_P1;PMS_P2;Temp;Humidity;BMP_temperature;BMP_pressure;BME280_temperature;BME280_humidity;BME280_pressure;Samples;Min_cycle;Max_cycle;Signal;HPM_P1;HPM_P2
2022/07/08 00:00:37;;;;;;;14.98;2.90;;;16.40;95.80;;;;;;5053284;28;20411;-71
2022/07/08 00:03:03;;;;;;;19.52;3.05;;;16.30;95.90;;;;;;5053071;28;20037;-73
2022/07/08 00:05:29;;;;;;;18.13;2.95;;;16.30;96.10;;;;;;5052795;28;20079;-72
2022/07/08 00:07:55;;;;;;;13.73;1.98;;;16.40;95.90;;;;;;5051681;28;20033;-72
2022/07/08 00:10:21;;;;;;;19.25;2.85;;;16.40;95.90;;;;;;5052786;28;20466;-72
2022/07/08 00:12:47;;;;;;;14.25;2.50;;;16.30;95.90;;;;;;5053228;28;20032;-71
2022/07/08 00:15:13;;;;;;;13.77;2.58;;;16.20;96.00;;;;;;5052647;28;20525;-71
2022/07/08 00:17:39;;;;;;;13.05;2.20;;;16.30;95.90;;;;;;5052708;28;20036;-72
2022/07/08 00:20:06;;;;;;;16.73;3.30;;;16.20;95.90;;;;;;5052688;28;20098;-72
2022/07/08 00:22:33;;;;;;;15.07;2.75;;;16.30;95.90;;;;;;5052854;28;20402;-71
2022/07/08 00:24:59;;;;;;;17.38;3.17;;;16.30;95.80;;;;;;5053014;28;20035;-71
2022/07/08 00:27:24;;;;;;;19.85;3.25;;;16.30;95.80;;;;;;5051550;28;20394;-71
2022/07/08 00:29:50;;;;;;;11.85;2.00;;;16.30;95.70;;;;;;5052731;28;20037;-72
2022/07/08 00:32:16;;;;;;;13.25;2.35;;;16.20;95.70;;;;;;5052431;28;20044;-71
2022/07/08 00:34:42;;;;;;;15.23;2.22;;;16.20;95.70;;;;;;5052337;28;20040;-72
2022/07/08 00:37:08;;;;;;;15.57;2.42;;;16.20;95.70;;;;;;5052687;28;20017;-73
2022/07/08 00:39:34;;;;;;;15.90;2.40;;;16.20;95.70;;;;;;5051276;28;20036;-72
2022/07/08 00:42:00;;;;;;;12.65;2.30;;;16.20;95.60;;;;;;5052660;28;20029;-72
2022/07/08 00:44:26;;;;;;;14.00;2.25;;;16.20;95.50;;;;;;5052200;28;20033;-72
2022/07/08 00:46:52;;;;;;;12.63;2.35;;;16.20;95.60;;;;;;5052129;28;20044;-72
2022/07/08 00:49:17;;;;;;;14.63;2.70;;;16.10;95.50;;;;;;5052024;28;20021;-72
2022/07/08 00:51:45;;;;;;;11.65;2.03;;;16.10;95.60;;;;;;5051416;28;20032;-72
2022/07/08 00:54:14;;;;;;;12.95;2.45;;;16.00;95.70;;;;;;5051956;28;20511;-72
2022/07/08 00:56:40;;;;;;;12.13;2.38;;;16.10;95.70;;;;;;5051926;28;20084;-72
2022/07/08 00:59:07;;;;;;;18.80;2.90;;;16.10;95.70;;;;;;5051870;28;20063;-73
2022/07/08 01:01:33;;;;;;;15.80;2.30;;;16.10;95.70;;;;;;5050878;28;20071;-72
2022/07/08 01:03:59;;;;;;;11.63;2.33;;;16.10;95.70;;;;;;5051062;28;20139;-71
2022/07/08 01:06:25;;;;;;;12.45;2.38;;;16.20;95.60;;;;;;5050889;28;20422;-72
2022/07/08 01:08:51;;;;;;;9.48;2.20;;;16.10;95.60;;;;;;5051665;28;20067;-72
2022/07/08 01:11:16;;;;;;;13.60;2.20;;;16.10;95.70;;;;;;5051465;28;20509;-72
2022/07/08 01:13:43;;;;;;;12.05;2.22;;;16.00;95.70;;;;;;5052036;28;20033;-72
2022/07/08 01:16:08;;;;;;;18.45;3.10;;;15.90;95.80;;;;;;5051952;28;20071;-72
2022/07/08 01:18:34;;;;;;;14.45;2.28;;;16.00;95.80;;;;;;5050582;28;20464;-72
2022/07/08 01:21:00;;;;;;;18.23;2.63;;;15.90;95.80;;;;;;5050556;28;20359;-73
2022/07/08 01:23:26;;;;;;;15.40;2.72;;;15.90;96.00;;;;;;5051644;28;20227;-71
2022/07/08 01:25:54;;;;;;;13.57;2.35;;;15.90;95.80;;;;;;5051620;28;20587;-72
2022/07/08 01:28:20;;;;;;;13.43;2.53;;;15.90;95.90;;;;;;5050185;28;20037;-72
2022/07/08 01:30:45;;;;;;;15.45;2.10;;;15.80;95.90;;;;;;5051807;28;20035;-72
2022/07/08 01:33:11;;;;;;;16.63;2.78;;;15.80;96.00;;;;;;5050101;28;20108;-72
2022/07/08 01:35:37;;;;;;;13.65;2.67;;;15.80;96.00;;;;;;5057686;28;20036;-72
2022/07/08 01:38:03;;;;;;;12.00;2.38;;;15.90;95.90;;;;;;5070933;28;20362;-72
2022/07/08 01:40:29;;;;;;;17.17;1.95;;;15.90;95.80;;;;;;5070779;28;20021;-72
2022/07/08 01:42:55;;;;;;;13.80;2.17;;;15.80;95.90;;;;;;5071657;28;20453;-73
2022/07/08 01:45:20;;;;;;;18.08;2.30;;;15.80;95.90;;;;;;5069908;28;20094;-71
2022/07/08 01:47:46;;;;;;;14.95;2.80;;;15.80;96.00;;;;;;5071075;28;20033;-72
2022/07/08 01:50:12;;;;;;;11.43;1.92;;;15.80;96.00;;;;;;5070880;28;20036;-73
2022/07/08 01:52:38;;;;;;;14.48;2.60;;;15.80;96.00;;;;;;5070772;28;20031;-72
2022/07/08 01:55:05;;;;;;;22.00;2.53;;;15.80;96.00;;;;;;5071004;28;20076;-71
2022/07/08 01:57:31;;;;;;;13.43;2.03;;;15.90;96.10;;;;;;5070720;28;20036;-72
2022/07/08 01:59:57;;;;;;;19.33;2.83;;;15.90;96.10;;;;;;5069662;28;20114;-72
2022/07/08 02:02:23;;;;;;;21.13;2.90;;;15.90;96.10;;;;;;5070724;28;20032;-72
2022/07/08 02:04:49;;;;;;;11.93;1.80;;;15.80;96.20;;;;;;5070682;28;20032;-71
2022/07/08 02:07:15;;;;;;;15.25;2.38;;;15.80;96.30;;;;;;5070540;28;20031;-71
2022/07/08 02:09:41;;;;;;;18.60;2.15;;;15.80;96.30;;;;;;5071085;28;20402;-72
2022/07/08 02:12:20;;;;;;;11.88;2.08;;;15.80;96.40;;;;;;5069703;28;20541;-72
2022/07/08 02:14:51;;;;;;;18.25;2.33;;;15.80;96.40;;;;;;5070282;28;20120;-72
2022/07/08 02:17:19;;;;;;;14.75;2.28;;;15.80;96.50;;;;;;5070481;28;20450;-72
2022/07/08 02:19:45;;;;;;;11.27;2.58;;;15.80;96.50;;;;;;5070332;28;20446;-72
2022/07/08 02:22:12;;;;;;;9.70;2.17;;;15.80;96.40;;;;;;5070157;28;20050;-71
2022/07/08 02:24:38;;;;;;;14.07;2.15;;;15.80;96.40;;;;;;5070845;28;20021;-72
2022/07/08 02:27:04;;;;;;;14.40;2.55;;;15.70;96.50;;;;;;5070383;28;20425;-73
2022/07/08 02:29:31;;;;;;;11.93;2.05;;;15.70;96.60;;;;;;5069097;28;20111;-71
2022/07/08 02:31:57;;;;;;;14.40;1.98;;;15.70;96.60;;;;;;5068940;28;20494;-72
2022/07/08 02:34:23;;;;;;;18.20;2.63;;;15.80;96.70;;;;;;5070082;28;20075;-71
2022/07/08 02:36:49;;;;;;;13.57;2.35;;;15.70;96.60;;;;;;5070590;28;20044;-71
2022/07/08 02:39:15;;;;;;;15.68;1.90;;;15.70;96.60;;;;;;5070346;28;20110;-71
2022/07/08 02:41:41;;;;;;;14.63;2.20;;;15.70;96.70;;;;;;5070158;28;20025;-71
2022/07/08 02:44:07;;;;;;;13.05;2.38;;;15.80;96.60;;;;;;5070106;28;20423;-71
2022/07/08 02:46:33;;;;;;;12.88;1.88;;;15.70;96.60;;;;;;5070390;28;20043;-71
2022/07/08 02:48:59;;;;;;;16.08;2.45;;;15.80;96.60;;;;;;5070143;28;20501;-72
2022/07/08 02:51:25;;;;;;;13.20;2.22;;;15.70;96.70;;;;;;5070375;28;20032;-72
2022/07/08 02:53:51;;;;;;;17.42;2.50;;;15.70;96.80;;;;;;5068866;28;20067;-72
2022/07/08 02:56:16;;;;;;;9.65;2.00;;;15.60;96.80;;;;;;5070056;28;20480;-72
2022/07/08 02:58:42;;;;;;;10.75;1.70;;;15.70;96.80;;;;;;5068925;28;20362;-71
2022/07/08 03:01:08;;;;;;;12.80;2.53;;;15.70;96.70;;;;;;5070425;28;20086;-71
2022/07/08 03:03:34;;;;;;;20.25;2.60;;;15.80;96.60;;;;;;5069744;28;20033;-71
2022/07/08 03:06:00;;;;;;;12.65;1.95;;;15.60;97.00;;;;;;5068743;28;20044;-71
2022/07/08 03:08:26;;;;;;;8.27;1.92;;;15.60;96.80;;;;;;5070672;28;20037;-71
2022/07/08 03:10:52;;;;;;;13.85;2.88;;;15.70;96.90;;;;;;5069842;28;20040;-71
2022/07/08 03:13:17;;;;;;;12.52;1.98;;;15.60;96.80;;;;;;5069930;28;20033;-72
2022/07/08 03:15:43;;;;;;;18.02;2.45;;;15.70;96.70;;;;;;5070456;28;20082;-72
2022/07/08 03:18:09;;;;;;;17.95;2.83;;;15.70;96.70;;;;;;5068632;28;20079;-72
2022/07/08 03:20:35;;;;;;;12.40;2.28;;;15.70;96.70;;;;;;5069833;28;20036;-72
2022/07/08 03:23:01;;;;;;;14.02;2.10;;;15.70;96.70;;;;;;5069688;28;20047;-71
2022/07/08 03:25:27;;;;;;;19.90;2.50;;;15.70;96.60;;;;;;5071423;28;20044;-71
2022/07/08 03:27:52;;;;;;;14.55;2.20;;;15.70;96.60;;;;;;5073911;28;20043;-72
2022/07/08 03:30:18;;;;;;;18.50;2.55;;;15.70;96.50;;;;;;5073412;28;20044;-72
2022/07/08 03:32:45;;;;;;;16.85;2.13;;;15.60;96.40;;;;;;5073496;28;20412;-71
2022/07/08 03:35:10;;;;;;;16.08;2.25;;;15.80;96.40;;;;;;5073452;28;20029;-73
2022/07/08 03:37:41;;;;;;;12.45;2.00;;;15.70;96.20;;;;;;5073562;28;20090;-72
2022/07/08 03:42:53;;;;;;;15.57;2.22;;;15.80;96.10;;;;;;5073804;28;20044;-72
2022/07/08 03:45:18;;;;;;;14.02;2.30;;;15.70;96.10;;;;;;5073116;28;20024;-72
2022/07/08 03:47:44;;;;;;;9.95;1.92;;;15.60;96.40;;;;;;5073815;28;20726;-72
2022/07/08 03:50:10;;;;;;;14.32;2.47;;;15.70;96.20;;;;;;5073807;28;20043;-72
2022/07/08 03:52:36;;;;;;;16.55;2.00;;;15.70;96.20;;;;;;5072955;28;20025;-71
2022/07/08 03:55:01;;;;;;;12.38;1.98;;;15.70;96.10;;;;;;5074076;28;20056;-72
2022/07/08 03:57:27;;;;;;;10.25;1.60;;;15.70;96.10;;;;;;5073942;28;20029;-71
2022/07/08 03:59:53;;;;;;;15.68;1.52;;;15.80;96.10;;;;;;5073497;28;20386;-71
2022/07/08 04:02:18;;;;;;;11.52;1.90;;;15.80;96.20;;;;;;5072797;28;20466;-72
2022/07/08 04:04:44;;;;;;;12.55;2.00;;;15.80;96.20;;;;;;5073160;28;20036;-72
2022/07/08 04:07:09;;;;;;;13.52;1.95;;;15.80;96.20;;;;;;5073382;28;20017;-71
2022/07/08 04:09:35;;;;;;;15.57;1.77;;;15.80;96.20;;;;;;5073693;28;20036;-72
2022/07/08 04:12:01;;;;;;;13.75;1.77;;;15.90;96.00;;;;;;5073397;28;20032;-72
2022/07/08 04:14:26;;;;;;;15.60;2.83;;;15.90;95.90;;;;;;5073632;28;20110;-72
2022/07/08 04:16:52;;;;;;;11.68;1.95;;;16.00;95.90;;;;;;5073534;28;20071;-73
2022/07/08 04:19:18;;;;;;;17.08;2.33;;;16.00;96.00;;;;;;5072454;28;20430;-72
2022/07/08 04:21:43;;;;;;;11.40;1.67;;;16.00;96.10;;;;;;5073267;28;20111;-72
2022/07/08 04:24:09;;;;;;;14.07;2.30;;;16.00;96.10;;;;;;5073161;28;20416;-70
2022/07/08 04:26:35;;;;;;;12.13;1.80;;;16.10;96.10;;;;;;5072731;28;20541;-72
2022/07/08 04:29:01;;;;;;;10.85;1.50;;;16.10;96.20;;;;;;5072871;28;20427;-72
2022/07/08 04:31:27;;;;;;;9.52;1.65;;;16.10;96.10;;;;;;5071366;28;20106;-72
2022/07/08 04:33:53;;;;;;;9.73;2.08;;;16.10;96.20;;;;;;5073276;28;20036;-72
2022/07/08 04:36:23;;;;;;;8.20;1.50;;;16.00;96.30;;;;;;5072978;28;20704;-71
2022/07/08 04:38:49;;;;;;;15.50;1.90;;;16.00;96.30;;;;;;5072581;28;20378;-71
2022/07/08 04:41:15;;;;;;;12.13;1.73;;;16.10;96.40;;;;;;5072522;28;20036;-71
2022/07/08 04:43:43;;;;;;;19.63;2.78;;;16.00;96.40;;;;;;5072122;28;20055;-72
2022/07/08 04:46:10;;;;;;;11.80;2.15;;;16.10;96.40;;;;;;5072731;28;20044;-70
2022/07/08 04:48:36;;;;;;;12.05;2.28;;;16.10;96.40;;;;;;5071009;28;20059;-71
2022/07/08 04:51:08;;;;;;;13.05;2.25;;;16.20;96.40;;;;;;5072165;28;20443;-73
2022/07/08 04:53:34;;;;;;;14.55;2.40;;;16.10;96.50;;;;;;5072054;28;20041;-72
2022/07/08 04:55:59;;;;;;;13.15;2.08;;;16.10;96.60;;;;;;5072537;28;20344;-72
2022/07/08 04:58:25;;;;;;;12.15;2.00;;;16.00;96.60;;;;;;5070927;28;20388;-71
2022/07/08 05:00:51;;;;;;;14.60;2.63;;;16.10;96.70;;;;;;5071364;28;20454;-71
2022/07/08 05:03:16;;;;;;;12.35;2.55;;;16.20;96.50;;;;;;5070666;28;20037;-72
2022/07/08 05:05:42;;;;;;;11.50;1.95;;;16.20;96.40;;;;;;5071902;28;20037;-73
2022/07/08 05:08:08;;;;;;;13.52;2.08;;;16.20;96.50;;;;;;5071866;28;20474;-71
2022/07/08 05:10:34;;;;;;;13.13;1.98;;;16.30;96.40;;;;;;5071745;28;20416;-73
2022/07/08 05:12:59;;;;;;;9.82;1.95;;;16.30;96.30;;;;;;5072070;28;20414;-72
2022/07/08 05:15:26;;;;;;;16.38;2.72;;;16.30;96.30;;;;;;5071578;28;20036;-73
2022/07/08 05:17:55;;;;;;;14.10;2.33;;;16.30;96.30;;;;;;5071848;28;20039;-72
2022/07/08 05:20:21;;;;;;;9.73;1.50;;;16.40;96.30;;;;;;5072251;28;20122;-72
2022/07/08 05:22:46;;;;;;;11.48;2.40;;;16.40;96.20;;;;;;5071651;28;20115;-72
2022/07/08 05:25:13;;;;;;;10.77;2.35;;;16.30;96.20;;;;;;5071465;28;20103;-71
2022/07/08 05:27:40;;;;;;;15.55;2.75;;;16.40;96.60;;;;;;5071895;28;20020;-73
2022/07/08 05:30:08;;;;;;;14.68;2.20;;;16.40;96.30;;;;;;5071883;28;20029;-75
2022/07/08 05:32:35;;;;;;;9.25;1.20;;;16.50;96.20;;;;;;5071551;28;20113;-73
2022/07/08 05:35:01;;;;;;;13.68;2.17;;;16.50;96.20;;;;;;5071266;28;20127;-74
2022/07/08 05:37:27;;;;;;;12.88;2.20;;;16.50;96.10;;;;;;5071449;28;20020;-73
2022/07/08 05:39:53;;;;;;;10.98;2.15;;;16.50;96.10;;;;;;5071712;28;20031;-73
2022/07/08 05:42:21;;;;;;;9.93;2.28;;;16.40;96.20;;;;;;5069893;28;20051;-75
2022/07/08 05:44:47;;;;;;;14.18;1.80;;;16.50;96.10;;;;;;5071086;28;20112;-73
2022/07/08 05:47:13;;;;;;;15.02;2.03;;;16.50;96.10;;;;;;5069550;28;20159;-72
2022/07/08 05:49:43;;;;;;;9.60;1.50;;;16.60;96.10;;;;;;5070539;28;20086;-72
2022/07/08 05:52:09;;;;;;;8.82;1.95;;;16.70;96.00;;;;;;5069996;28;20232;-72
2022/07/08 05:54:35;;;;;;;11.65;1.83;;;16.60;95.90;;;;;;5070727;28;20057;-71
2022/07/08 05:57:01;;;;;;;13.48;2.60;;;16.60;95.90;;;;;;5069267;28;20104;-74
2022/07/08 05:59:28;;;;;;;12.60;2.22;;;16.60;96.00;;;;;;5070652;28;20101;-73
2022/07/08 06:01:55;;;;;;;7.13;2.03;;;16.60;96.00;;;;;;5070391;28;20048;-75
2022/07/08 06:04:21;;;;;;;17.52;1.80;;;16.60;95.60;;;;;;5070842;28;20027;-74
2022/07/08 06:06:46;;;;;;;7.47;1.50;;;16.60;95.60;;;;;;5071229;28;20097;-76
2022/07/08 06:09:12;;;;;;;11.57;2.30;;;16.50;95.70;;;;;;5069641;28;20109;-75
2022/07/08 06:11:38;;;;;;;13.93;2.47;;;16.60;95.70;;;;;;5070657;28;20035;-77
2022/07/08 06:14:04;;;;;;;11.77;1.90;;;16.50;95.70;;;;;;5070738;28;20110;-74
2022/07/08 06:16:30;;;;;;;12.55;1.63;;;16.60;95.60;;;;;;5070545;28;20412;-75
2022/07/08 06:18:55;;;;;;;13.68;2.00;;;16.70;95.50;;;;;;5071156;28;20056;-75
2022/07/08 06:21:21;;;;;;;9.35;2.08;;;16.70;95.50;;;;;;5070500;28;20474;-73
2022/07/08 06:23:47;;;;;;;13.07;2.28;;;16.80;95.50;;;;;;5070468;28;20286;-75
2022/07/08 06:26:13;;;;;;;10.02;1.95;;;16.80;95.30;;;;;;5070542;28;20036;-76
2022/07/08 06:28:39;;;;;;;14.35;2.13;;;16.90;95.30;;;;;;5069270;28;20032;-76
2022/07/08 06:31:08;;;;;;;7.60;1.70;;;17.00;95.20;;;;;;5070855;28;20021;-74
2022/07/08 06:33:33;;;;;;;11.68;1.77;;;16.90;95.00;;;;;;5070354;28;20037;-75
2022/07/08 06:35:59;;;;;;;8.50;2.45;;;17.00;95.20;;;;;;5070428;28;20028;-74
2022/07/08 06:38:24;;;;;;;16.52;1.65;;;17.10;95.10;;;;;;5070694;28;20028;-74
2022/07/08 06:40:50;;;;;;;15.55;2.10;;;17.20;94.80;;;;;;5069972;28;20086;-74
2022/07/08 06:43:17;;;;;;;11.75;2.05;;;17.30;94.60;;;;;;5069290;28;20017;-75
2022/07/08 06:45:46;;;;;;;8.02;2.00;;;17.30;94.40;;;;;;5070873;28;20013;-73
2022/07/08 06:48:12;;;;;;;6.05;1.67;;;17.30;94.10;;;;;;5071485;28;20029;-74
2022/07/08 06:50:38;;;;;;;15.25;2.00;;;17.40;94.10;;;;;;5071967;28;20484;-75
2022/07/08 06:53:04;;;;;;;12.43;2.00;;;17.50;94.10;;;;;;5071154;28;20607;-74
2022/07/08 06:55:29;;;;;;;19.85;2.22;;;17.50;94.10;;;;;;5070678;28;26248;-74
2022/07/08 06:57:55;;;;;;;8.90;1.33;;;17.50;94.10;;;;;;5072077;28;20179;-75
2022/07/08 07:00:22;;;;;;;14.27;2.15;;;17.60;93.80;;;;;;5071733;28;20461;-77
2022/07/08 07:02:49;;;;;;;7.07;1.38;;;17.50;92.70;;;;;;5075637;28;20051;-76
2022/07/08 07:05:15;;;;;;;10.60;2.05;;;17.40;92.50;;;;;;5074900;28;20108;-75
2022/07/08 07:07:40;;;;;;;12.20;1.38;;;17.50;92.40;;;;;;5074539;28;20174;-76
2022/07/08 07:10:07;;;;;;;8.63;1.58;;;17.50;92.30;;;;;;5075942;28;20425;-75
2022/07/08 07:12:33;;;;;;;10.05;2.60;;;17.50;92.00;;;;;;5074669;28;20127;-73
2022/07/08 07:14:58;;;;;;;6.72;1.48;;;17.50;91.80;;;;;;5075304;28;20117;-74
2022/07/08 07:17:24;;;;;;;9.43;1.50;;;17.40;91.80;;;;;;5075134;28;20470;-76
2022/07/08 07:19:50;;;;;;;17.70;3.15;;;17.50;92.10;;;;;;5074346;28;20105;-75
2022/07/08 07:22:16;;;;;;;13.45;1.85;;;17.50;92.00;;;;;;5074025;28;20395;-74
2022/07/08 07:24:43;;;;;;;9.48;1.40;;;17.50;92.20;;;;;;5074454;28;20028;-73
2022/07/08 07:27:09;;;;;;;6.13;1.17;;;17.30;92.20;;;;;;5075350;28;20524;-74
2022/07/08 07:29:35;;;;;;;7.45;1.55;;;17.50;92.40;;;;;;5073698;28;20033;-75
2022/07/08 07:32:01;;;;;;;8.48;1.60;;;17.60;92.10;;;;;;5075419;28;20031;-77
2022/07/08 07:34:26;;;;;;;15.02;1.50;;;17.60;91.80;;;;;;5073816;28;20435;-76
2022/07/08 07:36:52;;;;;;;8.82;2.38;;;17.70;91.80;;;;;;5074708;28;20115;-75
2022/07/08 07:39:18;;;;;;;9.65;1.48;;;17.80;91.90;;;;;;5074991;28;20507;-75
2022/07/08 07:41:44;;;;;;;9.23;2.30;;;17.70;92.00;;;;;;5075160;28;20426;-74
2022/07/08 07:44:10;;;;;;;9.65;1.45;;;17.80;92.10;;;;;;5074892;28;20239;-73
2022/07/08 07:46:35;;;;;;;11.40;1.30;;;18.00;92.10;;;;;;5074673;28;20032;-75
2022/07/08 07:49:02;;;;;;;7.00;1.58;;;18.00;91.90;;;;;;5074837;28;20028;-74
2022/07/08 07:51:28;;;;;;;8.30;1.58;;;18.00;91.80;;;;;;5074524;28;20494;-74
2022/07/08 07:53:54;;;;;;;16.23;1.80;;;18.00;91.80;;;;;;5072707;28;20144;-73
2022/07/08 07:56:20;;;;;;;5.80;1.15;;;18.20;91.90;;;;;;5073019;28;20029;-73
2022/07/08 07:58:46;;;;;;;16.27;1.88;;;18.10;91.70;;;;;;5073352;28;20025;-74
2022/07/08 08:01:12;;;;;;;14.70;1.65;;;18.20;92.20;;;;;;5073225;28;20089;-75
2022/07/08 08:03:37;;;;;;;9.95;1.92;;;18.40;92.00;;;;;;5072835;28;20028;-73
2022/07/08 08:06:09;;;;;;;11.07;1.65;;;18.40;91.50;;;;;;5072384;28;20378;-73
2022/07/08 08:08:35;;;;;;;12.13;2.35;;;18.30;91.30;;;;;;5071882;28;20481;-71
2022/07/08 08:11:09;;;;;;;15.98;2.33;;;18.50;91.60;;;;;;5071376;28;20116;-72
2022/07/08 08:13:35;;;;;;;12.98;2.22;;;18.70;91.40;;;;;;5070708;28;20025;-72
2022/07/08 08:16:01;;;;;;;6.90;1.65;;;18.80;91.40;;;;;;5071317;28;20021;-73
2022/07/08 08:18:27;;;;;;;12.23;1.85;;;18.80;91.30;;;;;;5078007;28;20485;-72
2022/07/08 08:20:54;;;;;;;8.60;1.15;;;18.90;91.20;;;;;;5071735;28;20032;-72
2022/07/08 08:23:19;;;;;;;10.40;2.00;;;19.30;91.00;;;;;;5070683;28;20041;-74
2022/07/08 08:25:45;;;;;;;15.10;1.90;;;19.90;90.80;;;;;;5072034;28;20033;-72
2022/07/08 08:28:10;;;;;;;11.63;1.42;;;20.90;88.80;;;;;;5072000;28;20021;-72
2022/07/08 08:30:36;;;;;;;8.82;1.30;;;21.60;86.80;;;;;;5070876;28;20017;-72
2022/07/08 08:33:02;;;;;;;11.48;2.00;;;21.10;83.90;;;;;;5071437;28;20062;-71
2022/07/08 08:35:28;;;;;;;11.48;2.95;;;20.50;85.60;;;;;;5071673;28;20154;-73
2022/07/08 08:37:54;;;;;;;11.05;1.88;;;20.50;86.90;;;;;;5072069;28;20028;-71
2022/07/08 08:40:24;;;;;;;10.82;1.75;;;20.30;87.20;;;;;;5071479;28;20024;-71
2022/07/08 08:42:50;;;;;;;6.25;1.23;;;20.80;86.70;;;;;;5070633;28;20025;-73
2022/07/08 08:45:16;;;;;;;6.07;1.75;;;21.40;84.70;;;;;;5071633;28;20028;-72
2022/07/08 08:47:45;;;;;;;8.65;1.52;;;22.40;84.70;;;;;;5071709;28;20035;-73
2022/07/08 08:55:37;;;;;;;6.70;1.25;;;22.40;80.80;;;;;;5079923;27;20455;-73
2022/07/08 08:58:05;;;;;;;11.63;1.50;;;21.20;81.80;;;;;;5047917;28;20183;-74
2022/07/08 09:00:32;;;;;;;12.82;1.77;;;21.70;81.30;;;;;;5047711;28;20100;-73
2022/07/08 09:02:58;;;;;;;11.13;1.77;;;22.50;79.80;;;;;;5047864;28;20033;-72
2022/07/08 09:05:25;;;;;;;6.40;1.40;;;22.50;78.00;;;;;;5048370;28;20527;-73
2022/07/08 09:07:52;;;;;;;9.35;1.88;;;22.20;78.80;;;;;;5048806;28;20030;-73
2022/07/08 09:10:19;;;;;;;8.50;1.75;;;22.30;77.60;;;;;;5048660;28;20044;-73
2022/07/08 09:13:07;;;;;;;7.75;1.38;;;21.90;78.70;;;;;;5049469;28;20079;-73
2022/07/08 09:15:40;;;;;;;7.57;1.40;;;21.80;79.40;;;;;;5047617;28;20092;-72
2022/07/08 09:18:11;;;;;;;7.32;1.55;;;21.80;78.50;;;;;;5047191;28;20053;-74
2022/07/08 09:20:51;;;;;;;5.82;1.20;;;21.80;79.40;;;;;;5048429;28;20037;-74
2022/07/08 09:23:27;;;;;;;7.97;1.45;;;22.40;78.20;;;;;;5046781;28;20527;-73
2022/07/08 09:25:58;;;;;;;6.85;1.65;;;22.70;77.70;;;;;;5047862;28;20025;-72
2022/07/08 09:28:30;;;;;;;8.30;1.35;;;23.40;77.90;;;;;;5048151;28;20028;-73
2022/07/08 09:30:58;;;;;;;5.53;1.10;;;23.00;76.70;;;;;;5048820;28;20029;-73
2022/07/08 09:33:25;;;;;;;7.87;1.50;;;22.80;76.00;;;;;;5048453;28;20457;-74
2022/07/08 09:35:51;;;;;;;7.25;1.48;;;22.80;77.80;;;;;;5047157;28;20263;-73
2022/07/08 09:38:22;;;;;;;8.77;1.33;;;22.40;76.80;;;;;;5048580;28;20029;-72
2022/07/08 09:40:55;;;;;;;6.60;1.73;;;21.80;78.50;;;;;;5046988;28;20029;-73
2022/07/08 09:43:21;;;;;;;8.32;1.95;;;22.00;79.00;;;;;;5047500;28;20017;-71
2022/07/08 09:45:47;;;;;;;13.73;1.70;;;22.00;78.30;;;;;;5047921;28;20028;-71
2022/07/08 09:48:13;;;;;;;9.57;1.25;;;22.00;78.90;;;;;;5047855;28;20353;-73
2022/07/08 09:50:47;;;;;;;11.05;2.28;;;21.80;78.90;;;;;;5047998;28;20025;-72
2022/07/08 09:53:13;;;;;;;9.20;2.00;;;21.70;79.30;;;;;;5047815;28;20412;-75
2022/07/08 09:55:41;;;;;;;6.63;1.40;;;21.60;80.30;;;;;;5047767;28;20112;-76
2022/07/08 09:58:08;;;;;;;12.77;1.48;;;21.60;80.40;;;;;;5048350;28;20489;-74
2022/07/08 10:00:33;;;;;;;17.63;2.65;;;21.70;80.70;;;;;;5046944;28;20120;-73
2022/07/08 10:03:03;;;;;;;11.10;1.73;;;21.50;80.90;;;;;;5045832;28;20053;-71
2022/07/08 10:05:29;;;;;;;8.02;1.73;;;21.60;81.50;;;;;;5040528;28;20045;-72
2022/07/08 10:07:55;;;;;;;10.40;2.67;;;21.60;82.10;;;;;;5031724;28;20474;-72
2022/07/08 10:10:21;;;;;;;12.52;3.58;;;21.40;82.20;;;;;;5032439;28;20075;-72
2022/07/08 10:12:48;;;;;;;17.20;2.10;;;21.40;82.60;;;;;;5033088;28;20033;-71
2022/07/08 10:15:15;;;;;;;9.02;1.40;;;21.60;81.60;;;;;;5032164;28;20435;-71
2022/07/08 10:17:45;;;;;;;15.05;2.38;;;21.60;81.80;;;;;;5032504;28;20037;-73
2022/07/08 10:20:13;;;;;;;10.20;1.73;;;21.40;81.70;;;;;;5032078;28;20106;-72
2022/07/08 10:22:40;;;;;;;9.18;1.75;;;21.20;82.20;;;;;;5031159;28;20547;-72
2022/07/08 10:25:07;;;;;;;15.13;1.80;;;21.20;82.60;;;;;;5033409;28;20079;-71
2022/07/08 10:27:35;;;;;;;9.63;1.30;;;21.10;82.70;;;;;;5032614;28;20037;-71
2022/07/08 10:30:19;;;;;;;11.73;1.90;;;21.10;82.90;;;;;;5031105;28;20030;-71
2022/07/08 10:32:49;;;;;;;8.80;2.45;;;21.10;82.90;;;;;;5032236;28;20030;-71
2022/07/08 10:35:22;;;;;;;7.32;1.27;;;21.00;83.00;;;;;;5031965;28;20033;-73
2022/07/08 10:37:59;;;;;;;8.70;1.70;;;20.80;83.20;;;;;;5031319;28;20044;-74
2022/07/08 10:40:48;;;;;;;8.77;1.33;;;20.90;84.00;;;;;;5030832;28;20120;-72
2022/07/08 10:43:21;;;;;;;8.68;2.42;;;21.00;84.60;;;;;;5031836;28;20036;-74
2022/07/08 10:46:14;;;;;;;14.32;4.28;;;21.10;84.20;;;;;;5032562;28;20022;-72
2022/07/08 10:48:40;;;;;;;5.32;1.35;;;21.30;84.00;;;;;;5032095;28;20026;-73
2022/07/08 10:51:18;;;;;;;12.18;2.08;;;21.20;83.80;;;;;;5031943;28;20419;-73
2022/07/08 10:53:57;;;;;;;9.13;1.90;;;21.00;84.60;;;;;;5031799;28;20065;-72
2022/07/08 10:56:58;;;;;;;10.23;2.15;;;21.10;84.80;;;;;;5031329;28;20113;-73
2022/07/08 10:59:26;;;;;;;17.80;1.98;;;21.30;84.90;;;;;;5031870;28;20040;-73
2022/07/08 11:02:12;;;;;;;;;;;21.30;84.10;;;;;;5032353;28;20075;-73
2022/07/08 11:04:37;;;;;;;8.85;1.70;;;21.40;84.90;;;;;;5032368;28;20019;-73
2022/07/08 11:07:29;;;;;;;6.45;1.70;;;21.60;84.10;;;;;;5033503;28;20444;-73
2022/07/08 11:10:04;;;;;;;6.32;1.55;;;21.60;84.00;;;;;;5032559;28;20048;-72
2022/07/08 11:12:36;;;;;;;9.45;1.48;;;21.70;84.30;;;;;;5032607;28;20025;-72
2022/07/08 11:15:13;;;;;;;8.32;2.97;;;21.60;84.10;;;;;;5032327;28;20341;-75
2022/07/08 11:17:41;;;;;;;11.48;2.47;;;21.40;84.40;;;;;;5031868;28;20364;-73
2022/07/08 11:20:11;;;;;;;13.82;1.85;;;21.50;84.50;;;;;;5032863;28;20364;-72
2022/07/08 11:22:41;;;;;;;11.88;1.98;;;21.30;84.30;;;;;;5033046;28;20232;-72
2022/07/08 11:25:13;;;;;;;7.15;1.65;;;21.30;84.90;;;;;;5032632;28;20030;-74
2022/07/08 11:27:39;;;;;;;5.68;1.20;;;21.50;84.90;;;;;;5033660;28;20045;-73
2022/07/08 11:30:08;;;;;;;8.60;1.52;;;21.50;84.60;;;;;;5033241;28;20034;-75
2022/07/08 11:32:34;;;;;;;5.88;1.38;;;21.30;85.20;;;;;;5032636;28;20460;-73
2022/07/08 11:35:00;;;;;;;8.88;1.65;;;21.30;85.40;;;;;;5032743;28;20029;-74
2022/07/08 11:37:26;;;;;;;6.20;1.98;;;21.20;85.70;;;;;;5032941;28;20083;-74
2022/07/08 11:39:52;;;;;;;7.70;1.80;;;21.20;86.00;;;;;;5032286;28;20021;-74
2022/07/08 11:42:18;;;;;;;11.75;1.77;;;21.20;85.90;;;;;;5032100;28;20057;-74
2022/07/08 11:44:45;;;;;;;5.20;1.23;;;21.30;86.10;;;;;;5031680;28;20064;-74
2022/07/08 11:47:13;;;;;;;5.70;2.00;;;21.40;86.20;;;;;;5032988;28;20037;-74
2022/07/08 11:49:43;;;;;;;7.88;1.65;;;21.30;86.70;;;;;;5032917;28;20049;-74
2022/07/08 11:52:09;;;;;;;7.88;2.75;;;21.20;86.50;;;;;;5033121;28;20025;-75
2022/07/08 11:54:35;;;;;;;12.10;2.78;;;21.10;87.00;;;;;;5032465;28;20051;-77
2022/07/08 11:57:03;;;;;;;7.93;1.60;;;21.10;87.20;;;;;;5031244;28;20056;-75
2022/07/08 11:59:31;;;;;;;11.50;1.67;;;21.10;87.50;;;;;;5031320;28;20040;-74
2022/07/08 12:01:58;;;;;;;8.13;2.55;;;20.90;87.80;;;;;;5032318;28;20255;-74
2022/07/08 12:04:24;;;;;;;9.18;2.25;;;21.00;88.10;;;;;;5032294;28;20097;-73
2022/07/08 12:06:55;;;;;;;5.55;1.50;;;20.90;88.20;;;;;;5033180;28;20032;-74
2022/07/08 12:09:23;;;;;;;10.18;1.70;;;21.00;88.10;;;;;;5031915;28;20033;-70
2022/07/08 12:11:51;;;;;;;6.13;1.40;;;21.20;88.10;;;;;;5031470;28;20026;-72
2022/07/08 12:14:17;;;;;;;8.38;1.83;;;21.30;88.00;;;;;;5031177;28;20156;-72
2022/07/08 12:16:45;;;;;;;11.88;2.53;;;21.40;88.20;;;;;;5030734;28;20035;-74
2022/07/08 12:19:34;;;;;;;8.98;1.85;;;21.20;88.30;;;;;;5030470;28;20017;-71
2022/07/08 12:22:05;;;;;;;8.45;1.95;;;21.20;88.70;;;;;;5030955;28;20014;-72
2022/07/08 12:24:38;;;;;;;6.38;1.73;;;21.20;88.80;;;;;;5030323;28;20030;-72
2022/07/08 12:27:16;;;;;;;8.00;1.50;;;21.10;89.60;;;;;;5030270;28;20052;-72
2022/07/08 12:29:42;;;;;;;8.63;1.50;;;21.20;89.30;;;;;;5028768;28;20363;-71
2022/07/08 12:32:10;;;;;;;6.25;1.55;;;21.20;89.40;;;;;;5030301;28;20120;-70
2022/07/08 12:34:35;;;;;;;5.25;1.30;;;21.30;89.50;;;;;;5030105;28;20293;-70
2022/07/08 12:37:25;;;;;;;4.10;1.40;;;21.40;89.70;;;;;;5030518;28;20078;-70
2022/07/08 12:39:51;;;;;;;7.78;1.80;;;21.40;89.60;;;;;;5030056;28;20125;-71
2022/07/08 12:42:35;;;;;;;4.60;1.58;;;21.50;89.90;;;;;;5030128;28;20132;-71
2022/07/08 12:45:12;;;;;;;3.75;1.33;;;21.70;90.00;;;;;;5028632;28;20551;-71
2022/07/08 12:47:38;;;;;;;3.25;0.90;;;21.80;89.90;;;;;;5029762;28;20033;-71
2022/07/08 12:50:06;;;;;;;8.93;1.77;;;21.80;89.80;;;;;;5029683;28;20031;-70